Dades meteomassalio
Diari Summary for Marc 26, 2017 Units:  English    Metric   Both
« Previous Day
Next Day »
Diari Semanal Mensual Anual Personalitzat
  Maxima: Minima: Mijana:
Temperatura: TemperatureC °F 3.6 °F 7.7 °F
Rosada: DewpointC °F 2.4 °F 5.3 °F
Humitat: Humidity % 51 % 85 %
Velocitat del vent: WindSpeedKMH mph 0.0 mph 1.6 mph
Racha vent: WindSpeedGustKMH mph - -
Vent:- - NE
Pressio: PressurehPa in 1017.5 in -
Pluja: 0.0 in    
Historical Graphs
 
 
Tabular Data for Marc 26, 2017
Time Temperature Dew Point Pressure Wind Wind Speed Wind Gust Humidity Rainfall Rate (Hourly) solar Conditions
TemperatureC °F DewpointC °F PressurehPa in Calm     Humidity % HourlyPrecipMM in SolarRadiationWatts/m^2 W/m2 Conditions
00:04 7.6 °F 5.2 °F 1017.8 in Calm     85 % 0.0 in 0.0 W/m2 RA
00:09 7.6 °F 5.2 °F 1017.8 in Calm     85 % 0.0 in 0.0 W/m2 CLR
00:14 7.6 °F 5.2 °F 1018.2 in Calm     85 % 0.0 in 0.0 W/m2 CLR
00:19 7.6 °F 5.2 °F 1018.2 in Calm     85 % 0.0 in 0.0 W/m2 CLR
00:24 7.6 °F 5.4 °F 1018.2 in Calm     86 % 0.0 in 0.0 W/m2 CLR
00:29 7.6 °F 5.4 °F 1018.2 in Calm     86 % 0.0 in 0.0 W/m2 CLR
00:34 7.6 °F 5.4 °F 1018.2 in Calm     86 % 0.0 in 0.0 W/m2 CLR
00:39 7.6 °F 5.4 °F 1018.2 in Calm     86 % 0.0 in 0.0 W/m2 CLR
00:44 7.6 °F 5.4 °F 1018.2 in Calm     86 % 0.0 in 0.0 W/m2 CLR
00:49 7.7 °F 5.5 °F 1018.2 in Calm     86 % 0.0 in 0.0 W/m2 CLR
00:50 7.7 °F 5.5 °F 1018.2 in Calm     86 % 0.0 in 0.0 W/m2 CLR
00:55 7.7 °F 5.3 °F 1018.2 in Calm     85 % 0.0 in 0.0 W/m2 CLR
00:56 7.7 °F 5.3 °F 1018.2 in Calm     85 % 0.0 in 0.0 W/m2 CLR
01:01 7.8 °F 5.4 °F 1018.2 in Calm     85 % 0.0 in 0.0 W/m2 CLR
01:06 7.8 °F 5.4 °F 1018.2 in Calm     85 % 0.0 in 0.0 W/m2 CLR
01:11 7.8 °F 5.4 °F 1018.2 in Calm     85 % 0.0 in 0.0 W/m2 CLR
01:16 7.8 °F 5.4 °F 1017.8 in Calm     85 % 0.0 in 0.0 W/m2 CLR
01:21 7.6 °F 5.2 °F 1017.8 in Calm     85 % 0.0 in 0.0 W/m2 CLR
01:26 7.5 °F 5.3 °F 1017.8 in Calm     86 % 0.0 in 0.0 W/m2 CLR
01:31 7.4 °F 5.3 °F 1018.2 in Calm     86 % 0.0 in 0.0 W/m2 CLR
01:36 7.4 °F 5.4 °F 1018.2 in Calm     87 % 0.0 in 0.0 W/m2 CLR
01:41 7.3 °F 5.3 °F 1018.2 in Calm     87 % 0.0 in 0.0 W/m2 CLR
01:46 7.3 °F 5.3 °F 1018.2 in Calm     87 % 0.0 in 0.0 W/m2 CLR
01:51 7.3 °F 5.3 °F 1018.2 in Calm     87 % 0.0 in 0.0 W/m2 CLR
01:56 7.2 °F 5.2 °F 1018.2 in Calm     87 % 0.0 in 0.0 W/m2 CLR
03:01 7.2 °F 5.2 °F 1017.8 in Calm     87 % 0.0 in 0.0 W/m2 CLR
03:06 7.1 °F 5.1 °F 1017.8 in Calm     87 % 0.0 in 0.0 W/m2 CLR
03:11 7.1 °F 5.2 °F 1017.8 in Calm     88 % 0.0 in 0.0 W/m2 CLR
03:16 6.9 °F 4.9 °F 1017.8 in Calm     87 % 0.0 in 0.0 W/m2 CLR
03:21 6.9 °F 5.1 °F 1017.8 in Calm     88 % 0.0 in 0.0 W/m2 CLR
03:26 6.8 °F 5.0 °F 1017.8 in Calm     88 % 0.0 in 0.0 W/m2 CLR
03:31 6.7 °F 4.9 °F 1017.8 in Calm     88 % 0.0 in 0.0 W/m2 CLR
03:36 6.6 °F 4.8 °F 1017.8 in Calm     88 % 0.0 in 0.0 W/m2 CLR
03:41 6.5 °F 4.8 °F 1017.8 in Calm     89 % 0.0 in 0.0 W/m2 CLR
03:46 6.4 °F 4.8 °F 1017.8 in Calm     89 % 0.0 in 0.0 W/m2 CLR
03:51 6.4 °F 4.7 °F 1017.8 in Calm     89 % 0.0 in 0.0 W/m2 CLR
03:56 6.4 °F 4.7 °F 1017.8 in Calm     89 % 0.0 in 0.0 W/m2 CLR
04:01 6.4 °F 4.7 °F 1017.8 in Calm     89 % 0.0 in 0.0 W/m2 CLR
04:06 6.4 °F 4.7 °F 1017.8 in Calm     89 % 0.0 in 0.0 W/m2 CLR
04:11 6.4 °F 4.9 °F 1017.8 in Calm     90 % 0.0 in 0.0 W/m2 CLR
04:16 6.4 °F 4.9 °F 1017.8 in Calm     90 % 0.0 in 0.0 W/m2 CLR
04:21 6.4 °F 4.9 °F 1017.8 in Calm     90 % 0.0 in 0.0 W/m2 CLR
04:26 6.4 °F 4.9 °F 1017.8 in Calm     90 % 0.0 in 0.0 W/m2 CLR
04:31 6.4 °F 4.9 °F 1017.8 in Calm     90 % 0.0 in 0.0 W/m2 CLR
04:36 6.4 °F 4.9 °F 1017.8 in Calm     90 % 0.0 in 0.0 W/m2 CLR
04:41 6.4 °F 4.9 °F 1017.8 in Calm     90 % 0.0 in 0.0 W/m2 CLR
04:46 6.4 °F 4.9 °F 1017.8 in Calm     90 % 0.0 in 0.0 W/m2 CLR
04:51 6.3 °F 4.8 °F 1017.8 in Calm     90 % 0.0 in 0.0 W/m2 CLR
04:56 6.3 °F 4.8 °F 1017.8 in Calm     90 % 0.0 in 0.0 W/m2 CLR
05:01 6.3 °F 4.8 °F 1017.8 in Calm     90 % 0.0 in 0.0 W/m2 CLR
05:06 6.2 °F 4.7 °F 1017.8 in Calm     90 % 0.0 in 0.0 W/m2 CLR
05:11 6.2 °F 4.7 °F 1018.2 in Calm     90 % 0.0 in 0.0 W/m2 CLR
05:16 6.1 °F 4.6 °F 1017.8 in Calm     90 % 0.0 in 0.0 W/m2 CLR
05:21 6.1 °F 4.6 °F 1017.8 in Calm     90 % 0.0 in 0.0 W/m2 CLR
05:26 6.1 °F 4.6 °F 1017.8 in Calm     90 % 0.0 in 0.0 W/m2 CLR
05:31 6.0 °F 4.5 °F 1017.8 in Calm     90 % 0.0 in 0.0 W/m2 CLR
05:36 6.0 °F 4.7 °F 1017.8 in Calm     91 % 0.0 in 0.0 W/m2 CLR
05:42 6.1 °F 4.7 °F 1017.8 in Calm     91 % 0.0 in 0.0 W/m2 CLR
05:47 6.1 °F 4.8 °F 1017.8 in Calm     91 % 0.0 in 0.0 W/m2 CLR
05:52 6.1 °F 4.8 °F 1018.2 in Calm     91 % 0.0 in 0.0 W/m2 CLR
05:57 6.0 °F 4.7 °F 1018.2 in Calm     91 % 0.0 in 0.0 W/m2 CLR
06:02 5.9 °F 4.6 °F 1018.2 in Calm     91 % 0.0 in 0.0 W/m2 CLR
06:07 5.8 °F 4.3 °F 1017.8 in Calm     90 % 0.0 in 0.0 W/m2 CLR
06:12 5.7 °F 4.2 °F 1017.8 in Calm     90 % 0.0 in 0.0 W/m2 CLR
06:17 5.5 °F 4.0 °F 1018.2 in Calm     90 % 0.0 in 0.0 W/m2 CLR
06:22 5.3 °F 3.8 °F 1018.2 in Calm     90 % 0.0 in 0.0 W/m2 CLR
06:27 5.2 °F 3.8 °F 1018.2 in Calm     91 % 0.0 in 0.0 W/m2 CLR
06:32 5.1 °F 3.8 °F 1018.2 in Calm     91 % 0.0 in 0.0 W/m2 CLR
06:37 5.1 °F 3.8 °F 1018.2 in Calm     91 % 0.0 in 0.0 W/m2 CLR
06:42 5.1 °F 3.7 °F 1018.2 in Calm     91 % 0.0 in 0.0 W/m2 CLR
06:47 4.9 °F 3.6 °F 1018.2 in Calm     91 % 0.0 in 0.0 W/m2 CLR
06:52 4.9 °F 3.6 °F 1018.2 in Calm     91 % 0.0 in 0.0 W/m2 CLR
06:57 4.8 °F 3.5 °F 1018.5 in Calm     91 % 0.0 in 0.0 W/m2 CLR
07:02 4.7 °F 3.4 °F 1018.5 in Calm     91 % 0.0 in 0.0 W/m2 CLR
07:07 4.7 °F 3.3 °F 1018.5 in Calm     91 % 0.0 in 0.0 W/m2 CLR
07:12 4.6 °F 3.3 °F 1018.5 in Calm     91 % 0.0 in 0.0 W/m2 CLR
07:17 4.5 °F 3.2 °F 1018.5 in Calm     91 % 0.0 in 0.0 W/m2 CLR
07:22 4.4 °F 3.1 °F 1018.5 in Calm     91 % 0.0 in 0.0 W/m2 CLR
07:27 4.3 °F 3.0 °F 1018.5 in Calm     91 % 0.0 in 0.0 W/m2 CLR
07:32 4.2 °F 2.9 °F 1018.5 in Calm     91 % 0.0 in 0.0 W/m2 CLR
07:37 4.1 °F 2.7 °F 1018.8 in Calm     91 % 0.0 in 0.0 W/m2 CLR
07:42 3.9 °F 2.6 °F 1018.8 in Calm     91 % 0.0 in 0.0 W/m2 OVC
07:47 3.9 °F 2.7 °F 1018.8 in Calm     92 % 0.0 in 0.0 W/m2 OVC
07:52 3.8 °F 2.7 °F 1018.8 in Calm     92 % 0.0 in 0.0 W/m2 OVC
07:57 3.7 °F 2.6 °F 1018.5 in Calm     92 % 0.0 in 7.0 W/m2 BKN
08:02 3.6 °F 2.4 °F 1018.8 in Calm     92 % 0.0 in 12.0 W/m2 BKN
08:07 3.6 °F 2.4 °F 1019.2 in Calm     92 % 0.0 in 18.0 W/m2 BKN
08:12 3.6 °F 2.4 °F 1019.2 in Calm     92 % 0.0 in 21.0 W/m2 BKN
08:17 3.6 °F 2.4 °F 1019.2 in Calm     92 % 0.0 in 25.0 W/m2 BKN
08:22 3.7 °F 2.6 °F 1019.2 in Calm     92 % 0.0 in 28.0 W/m2 BKN
08:27 3.7 °F 2.5 °F 1019.2 in Calm     92 % 0.0 in 33.0 W/m2 BKN
08:32 3.6 °F 2.4 °F 1019.2 in Calm     92 % 0.0 in 33.0 W/m2 BKN
08:37 3.6 °F 2.4 °F 1019.5 in Calm     92 % 0.0 in 37.0 W/m2 BKN
08:42 3.6 °F 2.4 °F 1019.5 in Calm     92 % 0.0 in 40.0 W/m2 BKN
08:47 3.6 °F 2.4 °F 1019.5 in Calm     92 % 0.0 in 42.0 W/m2 BKN
08:52 3.7 °F 2.5 °F 1019.2 in Calm     92 % 0.0 in 62.0 W/m2 SCT
08:57 3.8 °F 2.6 °F 1019.2 in Calm     92 % 0.0 in 97.0 W/m2 SCT
09:02 4.0 °F 2.9 °F 1019.2 in Calm     93 % 0.0 in 130.0 W/m2 FEW
09:07 4.2 °F 3.1 °F 1019.2 in Calm     92 % 0.0 in 125.0 W/m2 CLR
09:09 4.2 °F 3.1 °F 1019.2 in Calm     92 % 0.0 in 118.0 W/m2 CLR
09:14 4.5 °F 3.3 °F 1019.2 in Calm     92 % 0.0 in 123.0 W/m2 CLR
09:19 4.8 °F 3.8 °F 1019.2 in Calm     93 % 0.0 in 174.0 W/m2 CLR
09:24 5.1 °F 3.9 °F 1019.2 in Calm     92 % 0.0 in 132.0 W/m2 CLR
09:29 5.3 °F 4.1 °F 1019.5 in Calm     92 % 0.0 in 202.0 W/m2 CLR
09:34 5.7 °F 4.4 °F 1019.5 in Calm     92 % 0.0 in 292.0 W/m2 CLR
09:39 6.1 °F 4.9 °F 1019.2 in Calm     92 % 0.0 in 255.0 W/m2 CLR
09:44 6.4 °F 5.0 °F 1019.2 in Calm     91 % 0.0 in 234.0 W/m2 CLR
09:49 6.7 °F 5.3 °F 1019.2 in Calm     91 % 0.0 in 243.0 W/m2 CLR
09:54 7.0 °F 5.4 °F 1019.2 in Calm     90 % 0.0 in 359.0 W/m2 CLR
09:59 7.3 °F 5.8 °F 1019.2 in Calm     90 % 0.0 in 265.0 W/m2 CLR
10:04 7.6 °F 5.7 °F 1019.5 in Calm     88 % 0.0 in 265.0 W/m2 CLR
10:09 7.7 °F 5.8 °F 1019.5 in Calm     88 % 0.0 in 220.0 W/m2 CLR
10:14 7.8 °F 5.7 °F 1019.5 in Calm     87 % 0.0 in 221.0 W/m2 CLR
10:19 7.7 °F 5.7 °F 1019.5 in Calm     87 % 0.0 in 237.0 W/m2 CLR
10:24 7.7 °F 5.7 °F 1019.5 in Calm     87 % 0.0 in 258.0 W/m2 CLR
10:29 7.8 °F 5.7 °F 1019.5 in Calm     87 % 0.0 in 260.0 W/m2 CLR
10:34 7.9 °F 5.9 °F 1019.5 in Calm     87 % 0.0 in 227.0 W/m2 CLR
10:39 8.1 °F 6.1 °F 1019.5 in Calm     87 % 0.0 in 276.0 W/m2 CLR
10:44 8.4 °F 6.3 °F 1019.5 in Calm     87 % 0.0 in 392.0 W/m2 CLR
10:49 8.8 °F 6.6 °F 1019.5 in Calm     86 % 0.0 in 473.0 W/m2 CLR
10:54 9.1 °F 6.8 °F 1019.9 in ENE 5.6 mph 5.6 mph 86 % 0.0 in 345.0 W/m2 CLR
10:59 9.1 °F 6.9 °F 1019.9 in Calm     86 % 0.0 in 318.0 W/m2 CLR
11:04 9.2 °F 7.0 °F 1019.5 in Calm     86 % 0.0 in 417.0 W/m2 CLR
11:09 9.5 °F 7.3 °F 1019.5 in Calm     86 % 0.0 in 571.0 W/m2 CLR
11:14 9.9 °F 7.6 °F 1019.5 in Calm     85 % 0.0 in 557.0 W/m2 CLR
11:19 10.4 °F 7.8 °F 1019.5 in Calm     84 % 0.0 in 571.0 W/m2 CLR
11:24 10.7 °F 7.9 °F 1019.5 in Calm     83 % 0.0 in 584.0 W/m2 CLR
11:29 11.0 °F 7.9 °F 1019.5 in Calm     81 % 0.0 in 596.0 W/m2 CLR
11:34 11.2 °F 8.1 °F 1019.5 in Calm     81 % 0.0 in 617.0 W/m2 CLR
11:39 11.6 °F 8.2 °F 1019.2 in Calm     80 % 0.0 in 619.0 W/m2 CLR
11:44 11.7 °F 8.2 °F 1019.2 in Calm     79 % 0.0 in 628.0 W/m2 CLR
11:49 11.8 °F 8.3 °F 1019.2 in NE 8.0 mph 8.0 mph 79 % 0.0 in 606.0 W/m2 CLR
11:54 11.9 °F 8.2 °F 1019.2 in NNE 3.7 mph 3.7 mph 78 % 0.0 in 631.0 W/m2 CLR
11:59 12.2 °F 8.7 °F 1019.2 in NE 9.7 mph 9.7 mph 79 % 0.0 in 642.0 W/m2 CLR
12:04 12.4 °F 8.4 °F 1019.2 in NNE 5.6 mph 5.6 mph 77 % 0.0 in 680.0 W/m2 CLR
12:09 12.5 °F 8.6 °F 1019.2 in NNE 5.6 mph 5.6 mph 77 % 0.0 in 719.0 W/m2 CLR
12:14 12.8 °F 8.7 °F 1018.8 in North 7.4 mph 7.4 mph 76 % 0.0 in 698.0 W/m2 CLR
12:19 13.1 °F 9.3 °F 1018.8 in NE 11.1 mph 11.1 mph 78 % 0.0 in 656.0 W/m2 CLR
12:24 13.3 °F 9.0 °F 1018.8 in ENE 7.4 mph 7.4 mph 75 % 0.0 in 559.0 W/m2 CLR
12:29 13.7 °F 8.9 °F 1018.8 in NE 8.0 mph 8.0 mph 73 % 0.0 in 606.0 W/m2 CLR
12:34 13.8 °F 8.8 °F 1018.8 in East 6.4 mph 6.4 mph 72 % 0.0 in 427.0 W/m2 CLR
12:39 13.9 °F 8.7 °F 1018.5 in NE 9.3 mph 9.3 mph 71 % 0.0 in 410.0 W/m2 CLR
12:44 14.0 °F 8.8 °F 1018.5 in NE 18.5 mph 18.5 mph 71 % 0.0 in 446.0 W/m2 CLR
12:49 14.2 °F 8.6 °F 1018.5 in ENE 11.3 mph 11.3 mph 69 % 0.0 in 638.0 W/m2 CLR
12:54 14.4 °F 8.6 °F 1018.5 in ENE 13.0 mph 13.0 mph 68 % 0.0 in 563.0 W/m2 CLR
12:59 14.5 °F 8.4 °F 1018.5 in ENE 14.8 mph 14.8 mph 67 % 0.0 in 262.0 W/m2 CLR
13:04 14.4 °F 8.4 °F 1018.5 in ENE 4.8 mph 4.8 mph 67 % 0.0 in 538.0 W/m2 CLR
13:09 14.6 °F 8.8 °F 1018.5 in ENE 13.0 mph 13.0 mph 68 % 0.0 in 483.0 W/m2 CLR
13:14 14.9 °F 8.1 °F 1018.5 in NE 7.4 mph 7.4 mph 64 % 0.0 in 657.0 W/m2 CLR
13:19 15.2 °F 8.7 °F 1018.2 in ENE 11.1 mph 11.1 mph 65 % 0.0 in 399.0 W/m2 CLR
13:24 15.7 °F 8.9 °F 1018.2 in ENE 9.3 mph 9.3 mph 64 % 0.0 in 844.0 W/m2 CLR
13:29 15.8 °F 7.6 °F 1018.2 in East 11.1 mph 11.1 mph 58 % 0.0 in 462.0 W/m2 CLR
13:34 15.8 °F 8.0 °F 1017.8 in NNE 9.3 mph 9.3 mph 60 % 0.0 in 577.0 W/m2 CLR
13:44 16.3 °F 6.7 °F 1017.8 in East 6.4 mph 6.4 mph 53 % 0.0 in 490.0 W/m2 CLR
13:49 16.3 °F 7.3 °F 1017.8 in ENE 5.6 mph 5.6 mph 55 % 0.0 in 508.0 W/m2 CLR
13:55 16.6 °F 7.5 °F 1017.8 in ENE 11.1 mph 11.1 mph 55 % 0.0 in 814.0 W/m2 CLR
14:00 16.7 °F 6.5 °F 1017.5 in ENE 18.5 mph 18.5 mph 51 % 0.0 in 770.0 W/m2 CLR
Lo Temps de Massalio
Compliments of Weather Underground - 768 kb